Time;durP1;ratioP1;P1;durP2;ratioP2;P2;SDS_P1;SDS_P2;PMS_P1;PMS_P2;Temp;Humidity;BMP_temperature;BMP_pressure;BME280_temperature;BME280_humidity;BME280_pressure;Samples;Min_cycle;Max_cycle;Signal;HPM_P1;HPM_P2
2021/06/26 00:01:17;;;;;;;2.60;0.70;;;15.20;99.90;;;;;;4954674;29;20207;-77
2021/06/26 00:03:46;;;;;;;3.27;0.80;;;15.20;99.90;;;;;;4951179;29;20262;-77
2021/06/26 00:06:13;;;;;;;3.20;0.70;;;15.20;99.90;;;;;;4948935;29;20200;-77
2021/06/26 00:08:40;;;;;;;2.37;0.70;;;15.20;99.90;;;;;;4941284;29;20200;-76
2021/06/26 00:11:07;;;;;;;2.60;0.90;;;15.20;99.90;;;;;;4949166;29;20263;-76
2021/06/26 00:13:34;;;;;;;1.77;0.80;;;15.20;99.90;;;;;;4954964;29;20309;-76
2021/06/26 00:16:00;;;;;;;1.80;0.77;;;15.20;99.90;;;;;;4956000;29;20680;-76
2021/06/26 00:18:27;;;;;;;2.57;0.90;;;15.10;99.90;;;;;;4955350;29;20222;-76
2021/06/26 00:20:56;;;;;;;1.40;0.60;;;15.10;99.90;;;;;;4949517;29;20236;-77
2021/06/26 00:23:23;;;;;;;1.80;0.90;;;15.10;99.90;;;;;;4947233;29;20200;-77
2021/06/26 00:25:50;;;;;;;1.37;1.00;;;15.20;99.90;;;;;;4955806;29;20263;-76
2021/06/26 00:28:17;;;;;;;3.50;0.97;;;15.20;99.90;;;;;;4954833;29;20676;-76
2021/06/26 00:30:44;;;;;;;2.10;0.77;;;15.20;99.90;;;;;;4954296;29;20286;-76
2021/06/26 00:33:10;;;;;;;1.50;0.80;;;15.10;99.90;;;;;;4936389;29;20608;-76
2021/06/26 00:35:37;;;;;;;2.23;1.00;;;15.20;99.90;;;;;;4948046;29;20207;-76
2021/06/26 00:38:06;;;;;;;2.60;1.10;;;15.10;99.90;;;;;;4948694;29;20228;-76
2021/06/26 00:40:33;;;;;;;2.60;1.00;;;15.10;99.90;;;;;;4945356;29;20262;-76
2021/06/26 00:43:00;;;;;;;3.13;1.03;;;15.10;99.90;;;;;;4949499;29;20634;-76
2021/06/26 00:45:27;;;;;;;4.40;1.07;;;15.10;99.90;;;;;;4954868;29;20234;-76
2021/06/26 00:47:54;;;;;;;1.60;1.30;;;15.10;99.90;;;;;;4952785;29;20199;-76
2021/06/26 00:50:23;;;;;;;4.10;1.43;;;15.10;99.90;;;;;;4945971;29;20282;-76
2021/06/26 00:52:51;;;;;;;4.07;1.70;;;15.10;99.90;;;;;;4936737;29;20204;-76
2021/06/26 00:55:21;;;;;;;2.67;1.40;;;15.10;99.90;;;;;;4954925;29;20286;-76
2021/06/26 00:57:50;;;;;;;1.77;1.27;;;15.10;99.90;;;;;;4940581;29;20231;-76
2021/06/26 01:00:18;;;;;;;4.53;1.67;;;15.10;99.90;;;;;;4945331;29;20596;-76
2021/06/26 01:02:45;;;;;;;3.60;2.00;;;15.10;99.90;;;;;;4955167;29;20231;-76
2021/06/26 01:05:12;;;;;;;2.70;1.60;;;15.10;99.90;;;;;;4937324;29;20286;-76
2021/06/26 01:07:40;;;;;;;3.93;1.60;;;15.10;99.90;;;;;;4944593;29;20238;-76
2021/06/26 01:10:08;;;;;;;6.10;1.90;;;15.20;99.90;;;;;;4940769;29;20234;-76
2021/06/26 01:12:37;;;;;;;5.40;2.30;;;15.20;99.90;;;;;;4947655;29;20234;-76
2021/06/26 01:15:06;;;;;;;4.83;2.40;;;15.20;99.90;;;;;;4954349;29;20242;-76
2021/06/26 01:17:34;;;;;;;4.00;2.70;;;15.20;99.90;;;;;;4934329;29;20246;-76
2021/06/26 01:20:02;;;;;;;5.03;3.90;;;15.20;99.90;;;;;;4948019;29;20647;-76
2021/06/26 01:22:35;;;;;;;4.63;3.20;;;15.10;99.90;;;;;;4945001;29;20241;-77
2021/06/26 01:25:02;;;;;;;6.47;4.33;;;15.10;99.90;;;;;;4947116;29;20196;-76
2021/06/26 01:27:29;;;;;;;7.27;4.30;;;15.00;99.90;;;;;;4947737;29;20575;-76
2021/06/26 01:29:56;;;;;;;11.83;5.30;;;15.00;99.90;;;;;;4954598;29;20323;-76
2021/06/26 01:32:23;;;;;;;7.17;5.60;;;14.90;99.90;;;;;;4954579;28;20641;-76
2021/06/26 01:34:50;;;;;;;6.43;5.50;;;14.90;99.90;;;;;;4945030;29;20295;-76
2021/06/26 01:37:17;;;;;;;7.90;5.67;;;14.80;99.90;;;;;;4954686;29;20245;-76
2021/06/26 01:39:45;;;;;;;8.30;6.10;;;14.80;99.90;;;;;;4946649;29;20231;-76
2021/06/26 01:42:13;;;;;;;8.93;5.93;;;14.70;99.90;;;;;;4953109;28;20211;-76
2021/06/26 01:44:40;;;;;;;9.23;5.67;;;14.80;99.90;;;;;;4936810;29;20649;-76
2021/06/26 01:47:07;;;;;;;9.57;6.13;;;14.70;99.90;;;;;;4951701;29;20688;-76
2021/06/26 01:49:36;;;;;;;12.53;6.33;;;14.70;99.90;;;;;;4954146;29;20242;-76
2021/06/26 01:52:04;;;;;;;8.80;7.20;;;14.80;99.90;;;;;;4945829;29;20585;-76
2021/06/26 01:54:31;;;;;;;11.37;7.17;;;14.80;99.90;;;;;;4935077;29;20608;-76
2021/06/26 01:56:59;;;;;;;9.70;6.50;;;14.70;99.90;;;;;;4948726;29;20232;-76
2021/06/26 01:59:26;;;;;;;10.90;6.57;;;14.70;99.90;;;;;;4935103;29;20291;-76
2021/06/26 02:01:53;;;;;;;10.40;6.57;;;14.70;99.90;;;;;;4947182;29;20232;-76
2021/06/26 02:04:20;;;;;;;11.07;6.53;;;14.60;99.90;;;;;;4949566;29;20661;-76
2021/06/26 02:06:47;;;;;;;15.77;8.70;;;14.60;99.90;;;;;;4953957;29;20265;-76
2021/06/26 02:09:14;;;;;;;11.53;7.93;;;14.60;99.90;;;;;;4953717;29;20658;-76
2021/06/26 02:11:41;;;;;;;10.07;8.20;;;14.60;99.90;;;;;;4952724;29;20200;-76
2021/06/26 02:14:09;;;;;;;12.43;7.90;;;14.70;99.90;;;;;;4953132;29;20238;-76
2021/06/26 02:16:36;;;;;;;12.80;8.07;;;14.70;99.90;;;;;;4954406;29;20602;-76
2021/06/26 02:19:03;;;;;;;12.03;7.80;;;14.70;99.90;;;;;;4952701;29;20282;-76
2021/06/26 02:21:30;;;;;;;14.07;8.17;;;14.70;99.90;;;;;;4953072;29;20270;-76
2021/06/26 02:23:57;;;;;;;11.57;7.60;;;14.70;99.90;;;;;;4935981;29;20235;-76
2021/06/26 02:26:23;;;;;;;17.07;8.07;;;14.70;99.90;;;;;;4934473;29;20291;-77
2021/06/26 02:28:50;;;;;;;12.63;7.80;;;14.70;99.90;;;;;;4947380;29;20207;-76
2021/06/26 02:31:19;;;;;;;14.50;7.80;;;14.70;99.90;;;;;;4945368;29;20238;-76
2021/06/26 02:33:46;;;;;;;14.50;8.00;;;14.70;99.90;;;;;;4943537;29;20227;-76
2021/06/26 02:36:13;;;;;;;20.10;8.30;;;14.70;99.90;;;;;;4952436;29;20226;-76
2021/06/26 02:38:40;;;;;;;14.50;8.20;;;14.70;99.90;;;;;;4940636;29;20255;-76
2021/06/26 02:41:07;;;;;;;12.63;8.30;;;14.70;99.90;;;;;;4934237;28;20279;-76
2021/06/26 02:43:34;;;;;;;14.73;8.53;;;14.70;99.90;;;;;;4934025;29;20239;-76
2021/06/26 02:46:01;;;;;;;12.33;8.57;;;14.60;99.90;;;;;;4951835;29;20245;-76
2021/06/26 02:48:29;;;;;;;14.30;8.50;;;14.60;99.90;;;;;;4937570;29;20287;-76
2021/06/26 02:50:56;;;;;;;12.43;8.47;;;14.60;99.90;;;;;;4938457;29;20255;-76
2021/06/26 02:53:23;;;;;;;13.20;8.73;;;14.60;99.90;;;;;;4949090;29;20249;-76
2021/06/26 02:55:55;;;;;;;12.70;8.47;;;14.60;99.90;;;;;;4952266;29;20242;-76
2021/06/26 02:58:22;;;;;;;17.40;9.03;;;14.60;99.90;;;;;;4945621;29;20266;-76
2021/06/26 03:00:49;;;;;;;13.83;9.17;;;14.60;99.90;;;;;;4939391;29;20204;-76
2021/06/26 03:03:16;;;;;;;15.33;8.70;;;14.50;99.90;;;;;;4935181;29;20231;-76
2021/06/26 03:05:45;;;;;;;12.13;8.17;;;14.50;99.90;;;;;;4947802;29;20620;-76
2021/06/26 03:08:12;;;;;;;16.33;8.77;;;14.50;99.90;;;;;;4953400;29;20298;-76
2021/06/26 03:10:38;;;;;;;14.87;8.63;;;14.40;99.90;;;;;;4953491;29;20231;-76
2021/06/26 03:13:05;;;;;;;12.63;8.40;;;14.40;99.90;;;;;;4952803;29;20298;-77
2021/06/26 03:15:33;;;;;;;12.73;8.37;;;14.40;99.90;;;;;;4947932;29;20661;-76
2021/06/26 03:18:00;;;;;;;15.57;8.63;;;14.30;99.90;;;;;;4952660;29;20203;-76
2021/06/26 03:20:27;;;;;;;17.80;8.57;;;14.20;99.90;;;;;;4936961;29;20322;-76
2021/06/26 03:22:56;;;;;;;15.40;8.77;;;14.20;99.90;;;;;;4952483;29;20290;-75
2021/06/26 03:25:22;;;;;;;13.43;8.93;;;14.20;99.90;;;;;;4953248;29;20213;-76
2021/06/26 03:27:49;;;;;;;19.23;8.93;;;14.20;99.90;;;;;;4943710;29;20279;-75
2021/06/26 03:30:18;;;;;;;15.50;8.53;;;14.10;99.90;;;;;;4950582;29;20230;-75
2021/06/26 03:32:44;;;;;;;22.83;9.47;;;14.00;99.90;;;;;;4935540;29;20212;-76
2021/06/26 03:35:12;;;;;;;16.70;9.17;;;14.00;99.90;;;;;;4953084;29;20230;-75
2021/06/26 03:37:39;;;;;;;20.13;9.87;;;14.00;99.90;;;;;;4944655;29;20231;-75
2021/06/26 03:40:09;;;;;;;19.53;9.77;;;14.00;99.90;;;;;;4939290;29;20309;-75
2021/06/26 03:42:36;;;;;;;14.67;9.10;;;13.90;99.90;;;;;;4948947;28;20223;-76
2021/06/26 03:45:03;;;;;;;21.80;9.30;;;13.80;99.90;;;;;;4952790;29;20395;-75
2021/06/26 03:47:30;;;;;;;12.30;8.83;;;13.90;99.90;;;;;;4953055;29;20203;-77
2021/06/26 03:49:57;;;;;;;22.00;9.67;;;13.90;99.90;;;;;;4942958;29;20204;-75
2021/06/26 03:52:24;;;;;;;14.83;9.57;;;14.00;99.90;;;;;;4953230;29;20207;-75
2021/06/26 03:54:51;;;;;;;13.77;9.27;;;14.10;99.90;;;;;;4952601;28;20223;-75
2021/06/26 03:57:19;;;;;;;15.73;9.67;;;14.10;99.90;;;;;;4950671;29;20207;-75
2021/06/26 03:59:46;;;;;;;18.33;9.67;;;14.10;99.90;;;;;;4948876;29;20219;-76
2021/06/26 04:02:13;;;;;;;17.20;10.23;;;14.20;99.90;;;;;;4949357;29;20202;-75
2021/06/26 04:04:40;;;;;;;15.47;9.50;;;14.20;99.90;;;;;;4949990;29;20265;-75
2021/06/26 04:07:07;;;;;;;15.40;10.67;;;14.30;99.90;;;;;;4936833;29;20204;-75
2021/06/26 04:09:34;;;;;;;18.57;10.30;;;14.30;99.90;;;;;;4944399;29;20238;-76
2021/06/26 04:12:01;;;;;;;16.57;10.57;;;14.30;99.90;;;;;;4956024;29;20732;-75
2021/06/26 04:14:30;;;;;;;19.10;9.70;;;14.30;99.90;;;;;;4954888;29;20247;-76
2021/06/26 04:16:57;;;;;;;22.03;10.67;;;14.30;99.90;;;;;;4944229;29;20246;-76
2021/06/26 04:19:24;;;;;;;19.47;11.10;;;14.30;99.90;;;;;;4946988;29;21041;-75
2021/06/26 04:21:51;;;;;;;19.30;10.63;;;14.30;99.90;;;;;;4955062;29;20325;-75
2021/06/26 04:24:17;;;;;;;19.27;10.57;;;14.30;99.90;;;;;;4955730;29;20245;-76
2021/06/26 04:26:44;;;;;;;18.40;10.13;;;14.30;99.90;;;;;;4950931;29;20286;-76
2021/06/26 04:29:11;;;;;;;19.57;10.50;;;14.30;99.90;;;;;;4953264;29;20199;-75
2021/06/26 04:31:39;;;;;;;16.90;10.60;;;14.40;99.90;;;;;;4949864;29;20313;-75
2021/06/26 04:34:06;;;;;;;19.30;10.70;;;14.40;99.90;;;;;;4952373;29;20290;-75
2021/06/26 04:36:33;;;;;;;18.47;10.70;;;14.40;99.90;;;;;;4955605;29;20245;-76
2021/06/26 04:39:00;;;;;;;17.90;10.53;;;14.40;99.90;;;;;;4955001;29;20242;-75
2021/06/26 04:41:28;;;;;;;20.37;10.43;;;14.40;99.90;;;;;;4950548;28;20250;-75
2021/06/26 04:43:55;;;;;;;17.00;10.73;;;14.50;99.90;;;;;;4945792;29;20199;-75
2021/06/26 04:46:22;;;;;;;20.57;10.30;;;14.50;99.90;;;;;;4942369;29;20233;-75
2021/06/26 04:48:50;;;;;;;17.53;10.53;;;14.50;99.90;;;;;;4949148;29;20701;-75
2021/06/26 04:51:19;;;;;;;21.33;10.60;;;14.60;99.90;;;;;;4955977;28;20231;-75
2021/06/26 04:53:46;;;;;;;16.40;10.53;;;14.60;99.90;;;;;;4944700;28;20390;-75
2021/06/26 04:56:13;;;;;;;18.53;11.00;;;14.60;99.90;;;;;;4947762;29;20202;-75
2021/06/26 04:58:40;;;;;;;18.30;10.83;;;14.70;99.90;;;;;;4954789;29;20237;-76
2021/06/26 05:01:07;;;;;;;20.60;10.77;;;14.70;99.90;;;;;;4953251;29;20258;-76
2021/06/26 05:03:34;;;;;;;15.43;10.77;;;14.60;99.90;;;;;;4948073;29;20291;-75
2021/06/26 05:06:02;;;;;;;20.10;10.80;;;14.60;99.90;;;;;;4944803;28;20235;-75
2021/06/26 05:08:29;;;;;;;23.63;11.23;;;14.60;99.90;;;;;;4954519;29;20234;-75
2021/06/26 05:10:56;;;;;;;16.97;11.30;;;14.60;99.90;;;;;;4954598;29;20281;-75
2021/06/26 05:13:23;;;;;;;16.53;10.30;;;14.70;99.90;;;;;;4939139;29;20252;-75
2021/06/26 05:15:49;;;;;;;19.43;10.37;;;14.80;99.90;;;;;;4944026;29;20295;-75
2021/06/26 05:18:16;;;;;;;19.33;10.27;;;14.90;99.90;;;;;;4952000;29;20235;-75
2021/06/26 05:20:43;;;;;;;18.10;10.57;;;15.00;99.90;;;;;;4952410;29;20310;-75
2021/06/26 05:23:13;;;;;;;22.43;10.63;;;15.00;99.90;;;;;;4950155;29;20247;-75
2021/06/26 05:25:40;;;;;;;19.17;10.93;;;14.90;99.90;;;;;;4954887;29;20293;-76
2021/06/26 05:28:07;;;;;;;13.67;9.83;;;14.80;99.90;;;;;;4954681;29;20234;-75
2021/06/26 05:30:35;;;;;;;16.93;9.97;;;14.80;99.90;;;;;;4954419;29;20195;-75
2021/06/26 05:33:01;;;;;;;16.57;10.13;;;14.70;99.90;;;;;;4938248;29;20231;-75
2021/06/26 05:35:29;;;;;;;15.53;9.73;;;14.80;99.90;;;;;;4935396;29;20295;-75
2021/06/26 05:37:56;;;;;;;16.47;9.40;;;15.00;99.90;;;;;;4947508;29;20285;-75
2021/06/26 05:40:24;;;;;;;17.03;9.70;;;15.00;99.90;;;;;;4941681;29;20255;-75
2021/06/26 05:42:51;;;;;;;14.50;9.93;;;15.20;99.90;;;;;;4937440;28;20260;-75
2021/06/26 05:45:18;;;;;;;14.73;8.67;;;15.50;99.90;;;;;;4953681;29;20207;-76
2021/06/26 05:47:45;;;;;;;12.57;9.00;;;15.50;99.90;;;;;;4954158;29;20646;-75
2021/06/26 05:50:12;;;;;;;11.17;7.60;;;15.60;99.90;;;;;;4951054;29;20282;-76
2021/06/26 05:52:47;;;;;;;13.60;8.37;;;15.50;99.90;;;;;;4953768;29;20206;-75
2021/06/26 05:55:15;;;;;;;11.30;8.00;;;15.50;99.90;;;;;;4954077;29;20249;-76
2021/06/26 05:57:43;;;;;;;12.67;7.53;;;15.60;99.90;;;;;;4954051;29;20724;-75
2021/06/26 06:00:12;;;;;;;10.77;7.23;;;15.60;99.90;;;;;;4945266;29;20318;-75
2021/06/26 06:02:38;;;;;;;10.30;7.00;;;15.60;99.90;;;;;;4946802;29;20262;-75
2021/06/26 06:05:08;;;;;;;10.00;6.67;;;15.70;99.90;;;;;;4951034;29;20233;-76
2021/06/26 06:07:35;;;;;;;13.30;7.10;;;15.70;99.90;;;;;;4952389;29;20203;-75
2021/06/26 06:10:02;;;;;;;13.57;7.17;;;15.90;99.90;;;;;;4936962;29;20208;-75
2021/06/26 06:12:30;;;;;;;8.77;6.83;;;16.00;99.90;;;;;;4953512;29;20242;-76
2021/06/26 06:14:58;;;;;;;10.23;6.53;;;16.10;99.90;;;;;;4951948;29;20291;-75
2021/06/26 06:17:25;;;;;;;10.13;6.37;;;16.00;99.90;;;;;;4934642;29;20323;-75
2021/06/26 06:19:52;;;;;;;7.27;5.87;;;16.00;99.90;;;;;;4939558;29;20218;-76
2021/06/26 06:22:19;;;;;;;13.17;7.33;;;16.00;99.90;;;;;;4941571;29;20262;-76
2021/06/26 06:24:46;;;;;;;11.57;6.83;;;16.20;99.90;;;;;;4953317;29;20641;-75
2021/06/26 06:27:13;;;;;;;9.20;6.17;;;16.30;99.90;;;;;;4951417;29;20723;-75
2021/06/26 06:29:40;;;;;;;8.53;6.30;;;16.30;99.90;;;;;;4953516;29;20297;-76
2021/06/26 06:32:09;;;;;;;7.97;6.20;;;16.40;99.90;;;;;;4953650;29;20227;-76
2021/06/26 06:34:35;;;;;;;11.37;6.67;;;16.50;99.90;;;;;;4953381;29;20711;-76
2021/06/26 06:37:03;;;;;;;9.57;5.93;;;16.50;99.90;;;;;;4938378;29;20282;-75
2021/06/26 06:39:30;;;;;;;9.87;6.10;;;16.50;99.90;;;;;;4948948;29;20246;-76
2021/06/26 06:41:56;;;;;;;12.40;6.73;;;16.60;99.90;;;;;;4937857;28;20310;-75
2021/06/26 06:44:23;;;;;;;8.83;6.10;;;16.90;99.90;;;;;;4944923;29;20199;-75
2021/06/26 06:46:50;;;;;;;7.07;5.90;;;16.80;99.90;;;;;;4932640;29;20263;-75
2021/06/26 06:49:19;;;;;;;8.13;5.00;;;17.00;99.90;;;;;;4948022;29;20624;-75
2021/06/26 06:51:46;;;;;;;8.67;4.40;;;17.20;99.90;;;;;;4952934;29;20199;-75
2021/06/26 06:54:13;;;;;;;7.80;4.57;;;17.30;99.90;;;;;;4951964;29;20234;-76
2021/06/26 06:56:40;;;;;;;4.10;3.70;;;17.30;99.90;;;;;;4949726;29;20243;-76
2021/06/26 06:59:06;;;;;;;4.17;3.33;;;17.30;99.90;;;;;;4947371;29;20399;-75
2021/06/26 07:01:33;;;;;;;3.73;2.97;;;17.20;99.90;;;;;;4934348;29;20310;-75
2021/06/26 07:04:00;;;;;;;4.40;2.77;;;17.00;99.90;;;;;;4943803;29;20733;-75
2021/06/26 07:06:28;;;;;;;4.27;2.93;;;17.00;99.90;;;;;;4946302;28;20771;-75
2021/06/26 07:08:55;;;;;;;3.20;2.90;;;17.00;99.90;;;;;;4944213;29;20289;-76
2021/06/26 07:11:23;;;;;;;5.23;3.37;;;17.30;99.90;;;;;;4947500;29;20219;-75
2021/06/26 07:13:53;;;;;;;4.60;3.03;;;17.50;99.90;;;;;;4943105;29;20234;-75
2021/06/26 07:16:22;;;;;;;3.60;2.90;;;17.30;99.90;;;;;;4946699;29;20234;-75
2021/06/26 07:18:49;;;;;;;4.60;2.47;;;17.70;99.90;;;;;;4930167;29;20287;-75
2021/06/26 07:21:17;;;;;;;5.97;2.40;;;17.60;99.90;;;;;;4943216;29;20317;-75
2021/06/26 07:23:45;;;;;;;3.27;2.40;;;17.50;99.90;;;;;;4944956;28;20234;-75
2021/06/26 07:26:12;;;;;;;3.43;2.40;;;17.70;99.90;;;;;;4955397;28;20287;-75
2021/06/26 07:28:39;;;;;;;2.47;2.10;;;17.60;99.90;;;;;;4948703;28;20299;-75
2021/06/26 07:31:06;;;;;;;4.20;2.00;;;17.70;99.90;;;;;;4950834;28;20282;-75
2021/06/26 07:33:33;;;;;;;3.80;2.07;;;17.50;99.90;;;;;;4950270;28;20291;-76
2021/06/26 07:36:00;;;;;;;3.10;1.90;;;17.00;99.90;;;;;;4947073;29;20231;-75
2021/06/26 07:38:27;;;;;;;2.60;1.70;;;16.80;99.90;;;;;;4944757;29;20208;-76
2021/06/26 07:40:55;;;;;;;2.00;1.80;;;16.80;99.90;;;;;;4951663;29;20263;-78
2021/06/26 07:43:22;;;;;;;3.33;2.03;;;17.00;99.90;;;;;;4945086;29;20709;-77
2021/06/26 07:45:49;;;;;;;3.80;2.10;;;16.90;99.90;;;;;;4952528;29;20310;-77
2021/06/26 07:48:16;;;;;;;3.07;1.80;;;16.70;99.90;;;;;;4947748;29;20286;-77
2021/06/26 07:50:49;;;;;;;2.80;1.70;;;16.50;99.90;;;;;;4946327;29;20222;-77
2021/06/26 07:53:16;;;;;;;2.53;1.80;;;16.50;99.90;;;;;;4950621;29;20203;-77
2021/06/26 07:55:44;;;;;;;2.67;2.20;;;16.60;99.90;;;;;;4939889;29;20302;-77
2021/06/26 07:58:12;;;;;;;2.27;1.90;;;16.90;99.90;;;;;;4954524;29;20199;-77
2021/06/26 08:00:39;;;;;;;3.30;2.23;;;17.00;99.90;;;;;;4943094;29;20311;-77
2021/06/26 08:03:06;;;;;;;3.30;2.10;;;17.20;99.90;;;;;;4949410;29;20227;-77
2021/06/26 08:05:33;;;;;;;3.73;2.47;;;17.10;99.90;;;;;;4944422;29;20208;-77
2021/06/26 08:08:00;;;;;;;2.83;1.80;;;17.20;99.90;;;;;;4945404;29;20231;-77
2021/06/26 08:10:28;;;;;;;2.80;1.67;;;17.10;99.90;;;;;;4948545;29;20245;-77
2021/06/26 08:12:55;;;;;;;2.57;1.40;;;17.10;99.90;;;;;;4946034;29;20279;-77
2021/06/26 08:15:23;;;;;;;2.20;1.50;;;17.50;99.90;;;;;;4945097;29;20203;-77
2021/06/26 08:17:50;;;;;;;3.07;1.50;;;17.80;99.90;;;;;;4944079;29;20211;-78
2021/06/26 08:20:17;;;;;;;2.22;1.52;;;17.90;99.90;;;;;;4942978;29;20242;-78
2021/06/26 08:22:44;;;;;;;2.23;1.50;;;18.00;99.90;;;;;;4947006;29;20238;-78
2021/06/26 08:25:11;;;;;;;2.90;1.50;;;17.70;99.90;;;;;;4939719;29;20286;-77
2021/06/26 08:27:38;;;;;;;2.97;2.15;;;17.70;99.90;;;;;;4950591;29;20287;-77
2021/06/26 08:30:07;;;;;;;2.77;2.00;;;17.40;99.90;;;;;;4939371;29;20240;-77
2021/06/26 08:32:38;;;;;;;3.07;2.10;;;17.50;99.90;;;;;;4951686;29;20255;-77
2021/06/26 08:35:05;;;;;;;4.80;2.40;;;17.60;99.90;;;;;;4950760;29;20226;-77
2021/06/26 08:37:32;;;;;;;3.10;2.30;;;17.40;99.90;;;;;;4942188;29;20290;-77
2021/06/26 08:39:59;;;;;;;6.83;2.23;;;17.50;99.90;;;;;;4950812;29;20291;-77
2021/06/26 08:42:26;;;;;;;4.47;2.37;;;17.60;99.90;;;;;;4955005;28;20255;-77
2021/06/26 08:44:59;;;;;;;4.93;2.30;;;17.50;99.90;;;;;;4943528;29;20331;-77
2021/06/26 08:47:27;;;;;;;3.40;2.30;;;17.30;99.90;;;;;;4937006;29;20243;-77
2021/06/26 08:49:55;;;;;;;3.77;1.97;;;17.50;99.90;;;;;;4948052;29;20246;-77
2021/06/26 08:52:22;;;;;;;2.93;1.63;;;17.50;99.90;;;;;;4936508;29;20697;-77
2021/06/26 08:54:51;;;;;;;3.77;1.67;;;17.20;99.90;;;;;;4938605;29;20203;-77
2021/06/26 08:57:26;;;;;;;1.50;1.40;;;17.10;99.90;;;;;;4949618;29;20660;-77
2021/06/26 08:59:53;;;;;;;2.60;1.40;;;17.30;99.90;;;;;;4949282;29;20743;-76
2021/06/26 09:02:22;;;;;;;2.30;1.00;;;17.30;99.90;;;;;;4944773;29;20255;-76
2021/06/26 09:04:49;;;;;;;2.37;1.40;;;17.40;99.90;;;;;;4949095;28;20230;-77
2021/06/26 09:07:28;;;;;;;1.60;1.23;;;17.40;99.90;;;;;;4956299;28;20669;-76
2021/06/26 09:09:56;;;;;;;2.33;1.10;;;17.40;99.90;;;;;;4947473;29;20203;-76
2021/06/26 09:12:25;;;;;;;2.30;1.40;;;17.20;99.90;;;;;;4944811;29;20910;-76
2021/06/26 09:14:53;;;;;;;3.60;1.50;;;17.10;99.90;;;;;;4952697;28;20689;-76
2021/06/26 09:17:31;;;;;;;2.27;1.30;;;17.20;99.90;;;;;;4941507;29;20278;-76
2021/06/26 09:20:00;;;;;;;4.13;2.23;;;17.30;99.90;;;;;;4930804;29;20273;-75
2021/06/26 09:22:38;;;;;;;1.73;1.30;;;17.40;99.90;;;;;;4943572;29;20259;-75
2021/06/26 09:25:21;;;;;;;1.50;1.10;;;17.50;99.90;;;;;;4949558;29;20203;-76
2021/06/26 09:27:48;;;;;;;1.70;1.60;;;17.40;99.90;;;;;;4939687;29;20203;-75
2021/06/26 09:30:16;;;;;;;2.07;1.53;;;17.60;99.90;;;;;;4945738;29;20286;-76
2021/06/26 09:32:46;;;;;;;2.30;1.57;;;17.80;99.90;;;;;;4938553;29;20337;-76
2021/06/26 09:35:17;;;;;;;1.47;1.30;;;17.70;99.90;;;;;;4928843;29;20203;-76
2021/06/26 09:37:45;;;;;;;3.40;1.77;;;17.60;99.90;;;;;;4954031;29;20202;-76
2021/06/26 09:40:14;;;;;;;4.43;1.80;;;17.50;99.90;;;;;;4953952;28;20207;-76
2021/06/26 09:42:41;;;;;;;2.83;1.80;;;17.60;99.90;;;;;;4948945;29;20315;-76
2021/06/26 09:45:10;;;;;;;2.72;1.75;;;17.70;99.90;;;;;;4952860;29;20199;-76
2021/06/26 09:47:39;;;;;;;3.20;2.00;;;17.90;99.90;;;;;;4951070;29;20238;-76
2021/06/26 09:50:14;;;;;;;2.73;1.70;;;18.10;99.90;;;;;;4941823;29;20231;-76
2021/06/26 09:52:45;;;;;;;2.90;2.17;;;17.90;99.90;;;;;;4948169;28;20234;-76
2021/06/26 09:55:19;;;;;;;2.50;2.00;;;17.50;99.90;;;;;;4949596;29;20238;-75
2021/06/26 09:57:47;;;;;;;3.43;2.13;;;17.50;99.90;;;;;;4952694;29;20673;-76
2021/06/26 10:00:16;;;;;;;3.30;2.00;;;17.50;99.90;;;;;;4941278;29;20206;-76
2021/06/26 10:02:43;;;;;;;3.20;2.10;;;17.30;99.90;;;;;;4950045;29;20223;-76
2021/06/26 10:05:11;;;;;;;2.40;2.20;;;17.40;99.90;;;;;;4930128;29;20717;-77
2021/06/26 10:07:40;;;;;;;4.87;2.30;;;17.40;99.90;;;;;;4949668;29;20290;-76
2021/06/26 10:10:12;;;;;;;2.80;2.50;;;17.30;99.90;;;;;;4946400;29;20255;-76
2021/06/26 10:12:39;;;;;;;2.60;2.37;;;17.20;99.90;;;;;;4951229;29;20692;-76
2021/06/26 10:15:08;;;;;;;3.80;2.63;;;17.10;99.90;;;;;;4935764;29;20304;-76
2021/06/26 10:17:36;;;;;;;3.30;2.73;;;17.00;99.90;;;;;;4953406;29;20234;-76
2021/06/26 10:20:05;;;;;;;2.23;2.03;;;17.10;99.90;;;;;;4936727;29;20299;-75
2021/06/26 10:22:36;;;;;;;3.53;2.40;;;17.40;99.90;;;;;;4942705;29;20263;-75
2021/06/26 10:25:05;;;;;;;2.70;2.25;;;17.70;99.90;;;;;;4946621;29;20199;-77
2021/06/26 10:27:33;;;;;;;3.20;2.40;;;18.50;99.90;;;;;;4942381;29;20242;-77
2021/06/26 10:30:11;;;;;;;3.33;2.28;;;19.20;99.90;;;;;;4951585;29;20652;-77
2021/06/26 10:32:49;;;;;;;3.10;1.83;;;19.50;99.90;;;;;;4952482;29;20278;-77
2021/06/26 10:35:16;;;;;;;2.25;2.00;;;19.20;99.90;;;;;;4937776;29;20282;-75
2021/06/26 10:37:43;;;;;;;3.25;2.05;;;18.60;99.90;;;;;;4945920;29;20289;-76
2021/06/26 10:40:11;;;;;;;3.58;2.35;;;18.30;99.90;;;;;;4951632;29;20281;-77
2021/06/26 10:42:40;;;;;;;5.18;3.05;;;17.70;99.90;;;;;;4950374;29;20305;-75
2021/06/26 10:45:24;;;;;;;3.25;2.63;;;17.20;99.90;;;;;;4950984;29;20239;-75
2021/06/26 10:47:51;;;;;;;4.57;2.70;;;16.90;99.90;;;;;;4951438;29;20289;-76
2021/06/26 10:50:21;;;;;;;3.10;2.80;;;16.70;99.90;;;;;;4953635;29;20230;-76
2021/06/26 10:52:49;;;;;;;4.13;2.70;;;16.70;99.90;;;;;;4953250;29;20634;-77
2021/06/26 10:55:27;;;;;;;2.77;2.57;;;16.90;99.90;;;;;;4944339;29;20592;-77
2021/06/26 10:57:56;;;;;;;3.87;2.63;;;17.00;99.90;;;;;;4948379;29;20199;-76
2021/06/26 11:00:33;;;;;;;2.53;2.33;;;17.10;99.90;;;;;;4952541;29;20237;-77
2021/06/26 11:03:01;;;;;;;3.20;2.42;;;17.60;99.90;;;;;;4944262;29;20218;-76
2021/06/26 11:05:30;;;;;;;2.60;2.40;;;18.10;99.90;;;;;;4955356;28;20202;-77
2021/06/26 11:07:57;;;;;;;3.28;2.50;;;18.40;99.90;;;;;;4944440;29;20696;-77
2021/06/26 11:10:25;;;;;;;3.30;2.53;;;18.30;99.90;;;;;;4945530;29;20226;-77
2021/06/26 11:12:52;;;;;;;3.65;2.60;;;18.10;99.90;;;;;;4947762;29;20223;-77
2021/06/26 11:15:28;;;;;;;3.13;2.33;;;18.20;99.90;;;;;;4937380;29;20291;-76
2021/06/26 11:17:55;;;;;;;2.90;2.17;;;18.30;99.90;;;;;;4947319;29;20230;-76
2021/06/26 11:20:23;;;;;;;2.80;2.15;;;18.70;99.90;;;;;;4951490;29;20203;-77
2021/06/26 11:22:55;;;;;;;2.40;2.20;;;18.80;99.90;;;;;;4954362;29;20269;-76
2021/06/26 11:25:22;;;;;;;2.45;2.13;;;18.80;99.90;;;;;;4955520;29;20267;-77
2021/06/26 11:28:00;;;;;;;2.50;2.30;;;18.90;99.90;;;;;;4955087;29;20206;-77
2021/06/26 11:30:29;;;;;;;4.32;2.28;;;19.20;99.90;;;;;;4952577;28;20226;-77
2021/06/26 11:32:56;;;;;;;2.92;2.20;;;19.80;99.90;;;;;;4960223;28;20219;-77
2021/06/26 11:35:23;;;;;;;2.40;2.20;;;19.90;99.90;;;;;;4955857;28;20214;-77
2021/06/26 11:37:51;;;;;;;2.90;2.22;;;19.60;99.90;;;;;;4960554;28;20258;-77
2021/06/26 11:40:21;;;;;;;2.40;2.20;;;19.40;99.90;;;;;;4949228;29;20282;-77
2021/06/26 11:42:53;;;;;;;2.67;2.30;;;18.90;99.90;;;;;;4951222;28;20279;-77
2021/06/26 11:45:22;;;;;;;4.53;2.50;;;18.60;99.90;;;;;;4948472;29;20195;-77
2021/06/26 11:48:02;;;;;;;3.13;2.83;;;17.90;99.90;;;;;;4956750;28;20258;-77
2021/06/26 11:50:29;;;;;;;3.75;2.67;;;18.00;99.90;;;;;;4950403;28;20290;-77
2021/06/26 11:53:07;;;;;;;2.90;2.17;;;18.10;99.90;;;;;;4948898;28;20239;-77
2021/06/26 11:55:40;;;;;;;2.85;2.35;;;18.10;99.90;;;;;;4948897;28;20698;-77
2021/06/26 11:58:07;;;;;;;2.65;2.45;;;18.00;99.90;;;;;;4948662;28;20292;-77
2021/06/26 12:00:34;;;;;;;3.45;2.17;;;18.50;99.90;;;;;;4956185;28;20222;-77
2021/06/26 12:03:02;;;;;;;2.78;2.53;;;18.60;99.90;;;;;;4955200;28;20255;-77
2021/06/26 12:05:29;;;;;;;3.10;2.13;;;19.40;99.90;;;;;;4949329;29;20250;-78
2021/06/26 12:08:04;;;;;;;2.78;2.13;;;19.60;99.90;;;;;;4955439;28;20194;-77
2021/06/26 12:10:32;;;;;;;3.35;2.10;;;19.80;99.90;;;;;;4954849;28;20198;-78
2021/06/26 12:12:59;;;;;;;4.03;2.30;;;19.80;99.90;;;;;;4950808;28;20648;-77
2021/06/26 12:15:27;;;;;;;2.40;2.20;;;19.80;99.90;;;;;;4954000;28;20272;-77
2021/06/26 12:18:05;;;;;;;7.75;2.40;;;19.60;99.90;;;;;;4947881;29;20239;-76
2021/06/26 12:20:37;;;;;;;3.13;2.10;;;19.30;99.90;;;;;;4948923;29;20681;-77
2021/06/26 12:23:10;;;;;;;3.22;2.50;;;18.90;99.90;;;;;;4952408;29;20313;-76
2021/06/26 12:25:38;;;;;;;3.55;2.33;;;18.60;99.90;;;;;;4947009;29;20306;-77
2021/06/26 12:28:08;;;;;;;2.67;2.47;;;18.30;99.90;;;;;;4944626;29;20291;-76
2021/06/26 12:30:36;;;;;;;2.40;2.20;;;18.30;99.90;;;;;;4952046;29;20290;-79
2021/06/26 12:33:07;;;;;;;2.47;2.28;;;18.30;99.90;;;;;;4949265;29;20199;-76
2021/06/26 12:35:34;;;;;;;3.45;2.70;;;18.30;99.90;;;;;;4952420;29;20227;-77
2021/06/26 12:38:02;;;;;;;2.72;2.22;;;18.30;99.90;;;;;;4945177;29;20286;-77
2021/06/26 12:40:30;;;;;;;2.65;2.20;;;18.30;99.90;;;;;;4947818;29;20246;-77
2021/06/26 12:43:02;;;;;;;5.63;2.10;;;18.20;99.90;;;;;;4958281;28;20227;-77
2021/06/26 12:45:32;;;;;;;2.22;1.92;;;18.20;99.90;;;;;;4943445;29;20585;-77
2021/06/26 12:48:10;;;;;;;5.00;2.00;;;18.10;99.90;;;;;;4946053;29;20294;-77